Terminal Aerodrome Forecast
Issued by NWS

Home | Current Version | Previous Version | Text Only | Print | Product List | Glossary On
Versions: 1 2 3 4 5 6 7 8 9 10 11 12 13 14 15 16 17 18 19 20 21
663
FTUS43 KDLH 040921 AAB
TAFHIB
TAF AMD
KHIB 040921Z 0409/0506 00000KT P6SM BKN030 OVC040
      TEMPO 0409/0412 1SM -SN SCT015
     FM041200 28005KT 3SM -SN BKN012
     FM041600 31006KT P6SM SCT012=

USA.gov is the U.S. government's official web portal to all federal, state and local government web resources and services.